Time;durP1;ratioP1;P1;durP2;ratioP2;P2;SDS_P1;SDS_P2;PMS_P1;PMS_P2;Temp;Humidity;BMP_temperature;BMP_pressure;BME280_temperature;BME280_humidity;BME280_pressure;Samples;Min_cycle;Max_cycle;Signal;HPM_P1;HPM_P2
2021/09/19 00:00:45;;;;;;;4.65;2.90;;;16.40;99.90;;;;;;4171054;28;20041;-73
2021/09/19 00:02:46;;;;;;;4.05;3.00;;;16.40;99.90;;;;;;4172510;28;20047;-74
2021/09/19 00:04:46;;;;;;;3.85;2.72;;;16.40;99.90;;;;;;4170963;28;20087;-73
2021/09/19 00:06:47;;;;;;;3.60;2.85;;;16.40;99.90;;;;;;4175324;28;20067;-73
2021/09/19 00:08:48;;;;;;;5.18;3.38;;;16.40;99.90;;;;;;4171305;28;20039;-74
2021/09/19 00:10:50;;;;;;;3.92;3.17;;;16.40;99.90;;;;;;4172034;28;20061;-74
2021/09/19 00:12:51;;;;;;;4.75;3.03;;;16.40;99.90;;;;;;4172933;28;20565;-74
2021/09/19 00:14:51;;;;;;;5.38;3.15;;;16.40;99.90;;;;;;4175096;28;20057;-73
2021/09/19 00:16:52;;;;;;;4.78;2.97;;;16.30;99.90;;;;;;4175658;28;20049;-74
2021/09/19 00:18:53;;;;;;;4.97;3.30;;;16.40;99.90;;;;;;4173564;28;20044;-73
2021/09/19 00:20:53;;;;;;;4.15;2.90;;;16.30;99.90;;;;;;4173652;28;20037;-73
2021/09/19 00:22:54;;;;;;;4.55;3.20;;;16.30;99.90;;;;;;4170288;28;20028;-74
2021/09/19 00:24:55;;;;;;;3.85;3.25;;;16.30;99.90;;;;;;4174458;28;20041;-74
2021/09/19 00:26:55;;;;;;;3.85;3.22;;;16.30;99.90;;;;;;4173641;28;20048;-73
2021/09/19 00:28:56;;;;;;;4.03;3.20;;;16.20;99.90;;;;;;4172851;28;20081;-74
2021/09/19 00:30:57;;;;;;;5.32;3.67;;;16.20;99.90;;;;;;4174446;28;20107;-74
2021/09/19 00:32:59;;;;;;;4.07;3.03;;;16.20;99.90;;;;;;4172297;28;20056;-73
2021/09/19 00:35:01;;;;;;;4.47;3.13;;;16.20;99.90;;;;;;4169106;28;20042;-74
2021/09/19 00:37:02;;;;;;;7.28;3.53;;;16.20;99.90;;;;;;4173900;28;20044;-74
2021/09/19 00:39:03;;;;;;;5.97;3.05;;;16.10;99.90;;;;;;4176206;28;20484;-74
2021/09/19 00:41:04;;;;;;;4.35;3.25;;;16.10;99.90;;;;;;4179373;28;20694;-73
2021/09/19 00:43:04;;;;;;;4.70;3.00;;;16.10;99.90;;;;;;4178666;28;20147;-74
2021/09/19 00:45:09;;;;;;;4.10;3.08;;;16.10;99.90;;;;;;4178616;28;20055;-73
2021/09/19 00:47:09;;;;;;;5.00;3.17;;;16.00;99.90;;;;;;4173517;28;20083;-73
2021/09/19 00:49:10;;;;;;;5.22;3.15;;;16.00;99.90;;;;;;4179854;28;20480;-73
2021/09/19 00:51:11;;;;;;;4.80;3.30;;;16.00;99.90;;;;;;4173135;28;20048;-74
2021/09/19 00:53:12;;;;;;;5.20;3.60;;;16.00;99.90;;;;;;4181646;28;20032;-73
2021/09/19 00:55:15;;;;;;;3.45;2.63;;;16.00;99.90;;;;;;4181181;28;20045;-74
2021/09/19 00:57:17;;;;;;;7.32;3.35;;;16.00;99.90;;;;;;4182775;28;20045;-74
2021/09/19 00:59:20;;;;;;;4.93;3.30;;;16.00;99.90;;;;;;4183077;28;20089;-74
2021/09/19 01:01:21;;;;;;;3.85;3.33;;;16.00;99.90;;;;;;4179144;28;20036;-74
2021/09/19 01:03:23;;;;;;;5.25;3.65;;;15.90;99.90;;;;;;4179143;28;20037;-73
2021/09/19 01:05:23;;;;;;;4.93;3.38;;;15.90;99.90;;;;;;4184970;28;20028;-74
2021/09/19 01:07:24;;;;;;;5.35;3.70;;;15.90;99.90;;;;;;4178078;28;20464;-74
2021/09/19 01:09:25;;;;;;;4.47;3.40;;;15.90;99.90;;;;;;4176458;28;20479;-74
2021/09/19 01:11:26;;;;;;;4.50;2.70;;;15.90;99.90;;;;;;4177087;28;20342;-74
2021/09/19 01:13:27;;;;;;;4.35;3.25;;;15.80;99.90;;;;;;4177401;28;20037;-73
2021/09/19 01:15:29;;;;;;;4.82;3.35;;;15.80;99.90;;;;;;4175148;28;20030;-73
2021/09/19 01:17:30;;;;;;;4.05;3.13;;;15.80;99.90;;;;;;4176648;28;20087;-73
2021/09/19 01:19:34;;;;;;;4.72;3.10;;;15.80;99.90;;;;;;4174475;28;20041;-73
2021/09/19 01:21:34;;;;;;;5.07;3.33;;;15.80;99.90;;;;;;4158712;28;20055;-74
2021/09/19 01:23:40;;;;;;;4.63;2.78;;;15.80;99.90;;;;;;4174155;28;20905;-74
2021/09/19 01:25:42;;;;;;;3.80;2.95;;;15.80;99.90;;;;;;4154909;28;20076;-73
2021/09/19 01:27:45;;;;;;;5.03;3.35;;;15.80;99.90;;;;;;4177854;28;20109;-74
2021/09/19 01:29:46;;;;;;;4.40;2.92;;;15.80;99.90;;;;;;4174700;28;20120;-73
2021/09/19 01:31:48;;;;;;;5.22;3.20;;;15.80;99.90;;;;;;4174200;28;20048;-73
2021/09/19 01:33:55;;;;;;;4.93;3.35;;;15.80;99.90;;;;;;4177134;28;20691;-74
2021/09/19 01:35:58;;;;;;;3.75;2.90;;;15.80;99.90;;;;;;4176494;28;20055;-73
2021/09/19 01:37:58;;;;;;;5.45;3.08;;;15.80;99.90;;;;;;4173507;28;20037;-73
2021/09/19 01:39:59;;;;;;;5.38;2.95;;;15.80;99.90;;;;;;4175854;28;20029;-73
2021/09/19 01:41:59;;;;;;;3.58;2.80;;;15.80;99.90;;;;;;4175521;28;20090;-74
2021/09/19 01:44:02;;;;;;;3.35;2.67;;;15.80;99.90;;;;;;4175030;28;20033;-73
2021/09/19 01:46:04;;;;;;;6.63;3.53;;;15.80;99.90;;;;;;4175076;28;20499;-74
2021/09/19 01:48:05;;;;;;;3.58;2.72;;;15.80;99.90;;;;;;4174632;28;20132;-73
2021/09/19 01:50:08;;;;;;;3.85;3.25;;;15.80;99.90;;;;;;4170336;28;20083;-73
2021/09/19 01:52:08;;;;;;;;;;;15.90;99.90;;;;;;4169119;28;20255;-73
2021/09/19 01:54:09;;;;;;;4.30;2.70;;;15.90;99.90;;;;;;4158154;28;19913;-73
2021/09/19 01:56:10;;;;;;;2.75;2.45;;;15.90;99.90;;;;;;4158836;28;20416;-74
2021/09/19 01:58:11;;;;;;;3.22;2.50;;;15.90;99.90;;;;;;4175770;28;20056;-74
2021/09/19 02:00:13;;;;;;;3.17;2.53;;;15.90;99.90;;;;;;4172587;28;20045;-73
2021/09/19 02:02:13;;;;;;;3.90;2.67;;;15.90;99.90;;;;;;4175940;28;20128;-74
2021/09/19 02:04:14;;;;;;;3.35;2.55;;;15.90;99.90;;;;;;4174922;28;20052;-74
2021/09/19 02:06:15;;;;;;;3.67;2.53;;;15.90;99.90;;;;;;4175314;28;20076;-74
2021/09/19 02:08:16;;;;;;;3.30;2.80;;;16.00;99.90;;;;;;4173398;28;20106;-74
2021/09/19 02:10:18;;;;;;;4.18;2.92;;;16.00;99.90;;;;;;4175474;28;20029;-74
2021/09/19 02:12:18;;;;;;;4.47;3.13;;;16.00;99.90;;;;;;4175696;28;20043;-73
2021/09/19 02:14:19;;;;;;;3.65;2.75;;;16.00;99.90;;;;;;4175431;28;20072;-74
2021/09/19 02:16:21;;;;;;;5.00;3.15;;;16.00;99.90;;;;;;4175120;28;20106;-74
2021/09/19 02:18:21;;;;;;;3.23;2.90;;;15.90;99.90;;;;;;4173153;28;20076;-73
2021/09/19 02:20:22;;;;;;;4.45;3.10;;;15.80;99.90;;;;;;4176924;28;20041;-73
2021/09/19 02:22:23;;;;;;;4.65;3.35;;;15.80;99.90;;;;;;4174597;28;20110;-74
2021/09/19 02:24:23;;;;;;;4.75;3.08;;;15.80;99.90;;;;;;4176515;28;20049;-74
2021/09/19 02:26:24;;;;;;;4.28;3.10;;;15.80;99.90;;;;;;4175707;28;20106;-73
2021/09/19 02:28:25;;;;;;;4.28;3.25;;;15.80;99.90;;;;;;4174004;28;20037;-74
2021/09/19 02:30:25;;;;;;;6.72;3.20;;;15.80;99.90;;;;;;4171805;28;20091;-74
2021/09/19 02:32:26;;;;;;;4.13;2.95;;;15.80;99.90;;;;;;4170621;28;20094;-74
2021/09/19 02:34:27;;;;;;;4.60;3.35;;;15.80;99.90;;;;;;4176201;28;20167;-74
2021/09/19 02:36:27;;;;;;;4.35;3.30;;;15.80;99.90;;;;;;4174349;28;20076;-73
2021/09/19 02:38:28;;;;;;;4.40;3.17;;;15.80;99.90;;;;;;4174028;28;20492;-74
2021/09/19 02:40:29;;;;;;;4.63;3.08;;;15.80;99.90;;;;;;4174932;28;20443;-73
2021/09/19 02:42:29;;;;;;;4.63;3.03;;;15.80;99.90;;;;;;4171120;28;20038;-73
2021/09/19 02:44:30;;;;;;;5.97;2.92;;;15.70;99.90;;;;;;4174113;28;20083;-74
2021/09/19 02:46:31;;;;;;;4.22;3.15;;;15.70;99.90;;;;;;4174426;28;21063;-74
2021/09/19 02:48:31;;;;;;;5.63;3.10;;;15.70;99.90;;;;;;4172408;28;20602;-73
2021/09/19 02:50:32;;;;;;;4.68;2.88;;;15.70;99.90;;;;;;4171593;28;20045;-73
2021/09/19 02:52:33;;;;;;;4.72;3.08;;;15.70;99.90;;;;;;4171161;28;20124;-74
2021/09/19 02:54:33;;;;;;;4.15;3.33;;;15.70;99.90;;;;;;4174220;28;20041;-74
2021/09/19 02:56:34;;;;;;;6.05;3.40;;;15.70;99.90;;;;;;4174525;28;20033;-74
2021/09/19 02:58:37;;;;;;;5.15;3.00;;;15.70;99.90;;;;;;4174071;28;20444;-74
2021/09/19 03:00:37;;;;;;;;;;;15.70;99.90;;;;;;4173488;28;20251;-73
2021/09/19 03:02:38;;;;;;;4.97;3.53;;;15.70;99.90;;;;;;4172536;28;19912;-73
2021/09/19 03:04:38;;;;;;;4.85;3.35;;;15.70;99.90;;;;;;4173229;28;20085;-74
2021/09/19 03:06:39;;;;;;;4.30;3.03;;;15.70;99.90;;;;;;4175232;28;20047;-74
2021/09/19 03:08:40;;;;;;;4.75;3.20;;;15.70;99.90;;;;;;4173377;28;20044;-74
2021/09/19 03:10:41;;;;;;;4.07;2.88;;;15.70;99.90;;;;;;4146464;28;20050;-74
2021/09/19 03:12:42;;;;;;;4.88;3.25;;;15.80;99.90;;;;;;4158499;28;20113;-74
2021/09/19 03:14:43;;;;;;;3.90;2.88;;;15.80;99.90;;;;;;4180230;28;20059;-74
2021/09/19 03:16:43;;;;;;;4.50;3.13;;;15.80;99.90;;;;;;4178915;28;20049;-74
2021/09/19 03:18:44;;;;;;;6.00;3.10;;;15.80;99.90;;;;;;4174802;28;20037;-73
2021/09/19 03:20:44;;;;;;;5.30;3.45;;;15.80;99.90;;;;;;4177042;28;20033;-74
2021/09/19 03:22:46;;;;;;;6.57;3.45;;;15.80;99.90;;;;;;4176394;28;20124;-74
2021/09/19 03:24:46;;;;;;;6.65;3.95;;;15.80;99.90;;;;;;4180656;28;20039;-74
2021/09/19 03:26:47;;;;;;;7.05;3.50;;;15.80;99.90;;;;;;4181409;28;20060;-73
2021/09/19 03:28:47;;;;;;;6.07;3.88;;;15.70;99.90;;;;;;4180648;28;20028;-74
2021/09/19 03:30:48;;;;;;;6.35;3.75;;;15.70;99.90;;;;;;4174051;28;20032;-74
2021/09/19 03:32:49;;;;;;;6.47;3.67;;;15.70;99.90;;;;;;4173811;28;20092;-73
2021/09/19 03:34:49;;;;;;;6.43;3.60;;;15.70;99.90;;;;;;4174481;28;20037;-74
2021/09/19 03:36:57;;;;;;;5.68;3.67;;;15.60;99.90;;;;;;4173790;28;20032;-74
2021/09/19 03:38:58;;;;;;;6.07;3.75;;;15.60;99.90;;;;;;4181794;28;20183;-74
2021/09/19 03:40:58;;;;;;;4.78;3.65;;;15.50;99.90;;;;;;4160113;28;20166;-74
2021/09/19 03:42:59;;;;;;;6.53;4.20;;;15.50;99.90;;;;;;4178072;28;20060;-74
2021/09/19 03:44:59;;;;;;;5.75;3.53;;;15.50;99.90;;;;;;4175809;28;20120;-73
2021/09/19 03:47:00;;;;;;;4.65;3.53;;;15.40;99.90;;;;;;4174694;28;20037;-74
2021/09/19 03:49:01;;;;;;;5.30;3.97;;;15.40;99.90;;;;;;4180210;28;20033;-74
2021/09/19 03:51:02;;;;;;;5.82;3.72;;;15.40;99.90;;;;;;4177720;28;20106;-73
2021/09/19 03:53:02;;;;;;;5.53;3.95;;;15.30;99.90;;;;;;4175173;28;20048;-74
2021/09/19 03:55:04;;;;;;;7.00;4.30;;;15.30;99.90;;;;;;4176282;28;20093;-73
2021/09/19 03:57:04;;;;;;;5.60;3.83;;;15.20;99.90;;;;;;4176683;28;20056;-73
2021/09/19 03:59:05;;;;;;;6.60;3.75;;;15.20;99.90;;;;;;4177941;28;20111;-74
2021/09/19 04:01:12;;;;;;;4.38;3.65;;;15.20;99.90;;;;;;4178943;28;20055;-73
2021/09/19 04:03:12;;;;;;;7.22;4.25;;;15.20;99.90;;;;;;4177617;28;20075;-73
2021/09/19 04:05:13;;;;;;;5.68;3.70;;;15.10;99.90;;;;;;4173245;28;20312;-74
2021/09/19 04:07:14;;;;;;;4.43;3.53;;;15.10;99.90;;;;;;4176975;28;20037;-73
2021/09/19 04:09:14;;;;;;;5.30;4.07;;;15.10;99.90;;;;;;4178478;28;20039;-74
2021/09/19 04:11:15;;;;;;;5.18;3.40;;;15.10;99.90;;;;;;4178631;28;20126;-73
2021/09/19 04:13:17;;;;;;;5.55;3.65;;;15.10;99.90;;;;;;4176671;28;20040;-74
2021/09/19 04:15:17;;;;;;;7.45;3.72;;;15.10;99.90;;;;;;4175605;28;20534;-74
2021/09/19 04:17:20;;;;;;;5.20;3.67;;;15.20;99.90;;;;;;4174458;28;20048;-74
2021/09/19 04:19:21;;;;;;;6.55;4.35;;;15.20;99.90;;;;;;4178629;28;20410;-73
2021/09/19 04:21:21;;;;;;;7.55;3.92;;;15.10;99.90;;;;;;4175792;28;20123;-73
2021/09/19 04:23:24;;;;;;;4.32;3.60;;;15.20;99.90;;;;;;4175644;28;20041;-74
2021/09/19 04:25:25;;;;;;;5.72;3.70;;;15.20;99.90;;;;;;4171768;28;20114;-74
2021/09/19 04:27:26;;;;;;;4.78;3.58;;;15.10;99.90;;;;;;4158190;28;20026;-73
2021/09/19 04:29:27;;;;;;;6.05;4.05;;;15.20;99.90;;;;;;4174087;28;20029;-74
2021/09/19 04:31:27;;;;;;;4.63;3.35;;;15.20;99.90;;;;;;4173487;28;20033;-74
2021/09/19 04:33:28;;;;;;;4.97;3.83;;;15.20;99.90;;;;;;4157277;28;20075;-73
2021/09/19 04:35:28;;;;;;;6.07;3.80;;;15.20;99.90;;;;;;4167608;28;20480;-74
2021/09/19 04:37:29;;;;;;;4.72;3.78;;;15.20;99.90;;;;;;4178660;28;20037;-74
2021/09/19 04:39:29;;;;;;;4.82;3.88;;;15.20;99.90;;;;;;4183940;28;20045;-74
2021/09/19 04:41:30;;;;;;;4.78;3.92;;;15.20;99.90;;;;;;4178043;28;20097;-74
2021/09/19 04:43:31;;;;;;;5.18;3.60;;;15.20;99.90;;;;;;4179531;28;20049;-73
2021/09/19 04:45:31;;;;;;;6.82;3.70;;;15.20;99.90;;;;;;4185660;28;20028;-73
2021/09/19 04:47:32;;;;;;;6.35;3.90;;;15.20;99.90;;;;;;4179960;28;20064;-73
2021/09/19 04:49:33;;;;;;;5.63;3.80;;;15.20;99.90;;;;;;4173093;28;20061;-74
2021/09/19 04:51:33;;;;;;;5.10;4.00;;;15.20;99.90;;;;;;4178329;28;20025;-74
2021/09/19 04:53:35;;;;;;;4.57;3.40;;;15.20;99.90;;;;;;4179247;28;20203;-74
2021/09/19 04:55:35;;;;;;;5.00;4.00;;;15.20;99.90;;;;;;4168431;28;20061;-74
2021/09/19 04:57:36;;;;;;;5.28;4.20;;;15.20;99.90;;;;;;4174057;28;20776;-74
2021/09/19 04:59:36;;;;;;;6.20;4.05;;;15.30;99.90;;;;;;4174589;28;20049;-74
2021/09/19 05:01:37;;;;;;;5.88;4.07;;;15.30;99.90;;;;;;4174721;28;20036;-74
2021/09/19 05:03:38;;;;;;;5.57;4.10;;;15.30;99.90;;;;;;4173323;28;20500;-74
2021/09/19 05:05:38;;;;;;;4.82;3.70;;;15.30;99.90;;;;;;4165314;28;20029;-73
2021/09/19 05:07:39;;;;;;;5.20;3.83;;;15.30;99.90;;;;;;4171071;28;20036;-74
2021/09/19 05:09:42;;;;;;;5.97;3.88;;;15.20;99.90;;;;;;4143586;28;20034;-74
2021/09/19 05:11:42;;;;;;;8.25;4.03;;;15.30;99.90;;;;;;4185682;28;20059;-74
2021/09/19 05:13:43;;;;;;;4.53;3.70;;;15.20;99.90;;;;;;4179625;28;20033;-73
2021/09/19 05:15:43;;;;;;;6.00;4.13;;;15.20;99.90;;;;;;4175651;28;20179;-74
2021/09/19 05:17:44;;;;;;;6.30;4.20;;;15.20;99.90;;;;;;4176151;28;20037;-74
2021/09/19 05:19:44;;;;;;;5.55;4.13;;;15.20;99.90;;;;;;4181626;28;20040;-74
2021/09/19 05:21:45;;;;;;;5.80;4.28;;;15.20;99.90;;;;;;4179218;28;20381;-74
2021/09/19 05:23:46;;;;;;;5.03;4.22;;;15.10;99.90;;;;;;4166636;28;20067;-74
2021/09/19 05:25:46;;;;;;;6.45;4.63;;;15.10;99.90;;;;;;4175173;28;20512;-74
2021/09/19 05:27:47;;;;;;;6.97;4.35;;;15.10;99.90;;;;;;4172160;28;20032;-74
2021/09/19 05:29:48;;;;;;;5.78;4.07;;;15.10;99.90;;;;;;4173846;28;20057;-74
2021/09/19 05:31:48;;;;;;;7.15;4.57;;;15.10;99.90;;;;;;4167481;28;20069;-74
2021/09/19 05:33:49;;;;;;;5.68;3.97;;;15.10;99.90;;;;;;4171979;28;20049;-74
2021/09/19 05:35:50;;;;;;;5.10;3.80;;;15.10;99.90;;;;;;4172146;28;20029;-74
2021/09/19 05:37:50;;;;;;;5.47;3.83;;;15.00;99.90;;;;;;4172419;28;20044;-75
2021/09/19 05:39:51;;;;;;;6.88;4.20;;;15.00;99.90;;;;;;4174116;28;20064;-74
2021/09/19 05:41:51;;;;;;;5.68;4.20;;;15.00;99.90;;;;;;4176086;28;20033;-74
2021/09/19 05:43:52;;;;;;;5.93;4.13;;;15.00;99.90;;;;;;4178493;28;20147;-74
2021/09/19 05:45:56;;;;;;;5.75;3.92;;;15.00;99.90;;;;;;4177502;28;20485;-74
2021/09/19 05:47:56;;;;;;;6.50;3.97;;;15.00;99.90;;;;;;4182539;28;20025;-74
2021/09/19 05:49:58;;;;;;;4.93;4.00;;;15.00;99.90;;;;;;4181783;28;20475;-74
2021/09/19 05:52:00;;;;;;;4.20;3.72;;;14.90;99.90;;;;;;4173783;28;20029;-74
2021/09/19 05:54:00;;;;;;;7.13;4.20;;;14.90;99.90;;;;;;4178745;28;20033;-74
2021/09/19 05:56:01;;;;;;;4.30;3.40;;;15.00;99.90;;;;;;4177607;28;20532;-74
2021/09/19 05:58:02;;;;;;;6.85;4.05;;;15.00;99.90;;;;;;4174448;28;20034;-74
2021/09/19 06:00:05;;;;;;;7.03;4.47;;;14.90;99.90;;;;;;4175704;28;20145;-74
2021/09/19 06:02:06;;;;;;;4.28;3.78;;;15.00;99.90;;;;;;4173627;28;20048;-74
2021/09/19 06:04:07;;;;;;;5.70;3.80;;;15.00;99.90;;;;;;4161983;28;20044;-74
2021/09/19 06:06:07;;;;;;;5.07;4.15;;;15.00;99.90;;;;;;4180510;28;20603;-74
2021/09/19 06:08:08;;;;;;;5.97;4.47;;;15.00;99.90;;;;;;4180688;28;20115;-74
2021/09/19 06:10:09;;;;;;;5.25;4.03;;;15.00;99.90;;;;;;4174217;28;20040;-74
2021/09/19 06:12:09;;;;;;;6.60;4.25;;;15.00;99.90;;;;;;4179450;28;20043;-74
2021/09/19 06:14:10;;;;;;;4.43;3.45;;;15.00;99.90;;;;;;4173553;28;20053;-74
2021/09/19 06:16:11;;;;;;;5.22;4.18;;;15.00;99.90;;;;;;4170166;28;20052;-74
2021/09/19 06:18:12;;;;;;;5.70;4.38;;;15.00;99.90;;;;;;4174818;28;20431;-74
2021/09/19 06:20:12;;;;;;;6.32;4.57;;;14.90;99.90;;;;;;4166535;28;20045;-74
2021/09/19 06:22:13;;;;;;;4.53;3.58;;;14.90;99.90;;;;;;4171530;28;20045;-74
2021/09/19 06:24:14;;;;;;;4.70;3.67;;;14.90;99.90;;;;;;4171333;28;20092;-75
2021/09/19 06:26:14;;;;;;;6.25;4.20;;;14.90;99.90;;;;;;4174222;28;20061;-75
2021/09/19 06:28:16;;;;;;;8.05;4.10;;;15.00;99.90;;;;;;4169087;28;20057;-75
2021/09/19 06:30:17;;;;;;;4.07;3.58;;;15.00;99.90;;;;;;4176135;28;20159;-75
2021/09/19 06:32:18;;;;;;;5.28;4.00;;;15.00;99.90;;;;;;4176630;28;20040;-74
2021/09/19 06:34:18;;;;;;;3.78;3.35;;;15.00;99.90;;;;;;4168522;28;20040;-75
2021/09/19 06:36:19;;;;;;;7.28;4.30;;;15.00;99.90;;;;;;4178076;28;20119;-75
2021/09/19 06:38:20;;;;;;;6.00;4.07;;;15.10;99.90;;;;;;4173544;28;20037;-75
2021/09/19 06:40:21;;;;;;;4.63;3.58;;;15.00;99.90;;;;;;4174491;28;20455;-73
2021/09/19 06:42:21;;;;;;;6.38;4.25;;;15.10;99.90;;;;;;4174621;28;20528;-73
2021/09/19 06:44:24;;;;;;;5.80;4.13;;;15.10;99.90;;;;;;4177791;28;20043;-74
2021/09/19 06:46:29;;;;;;;5.25;3.92;;;15.00;99.90;;;;;;4172229;28;20040;-74
2021/09/19 06:48:30;;;;;;;5.38;4.10;;;15.00;99.90;;;;;;4152957;28;20046;-73
2021/09/19 06:50:31;;;;;;;5.90;3.58;;;15.00;99.90;;;;;;4175173;28;20538;-73
2021/09/19 06:52:32;;;;;;;6.75;4.45;;;15.10;99.90;;;;;;4175769;28;20392;-76
2021/09/19 06:54:32;;;;;;;4.93;3.40;;;15.10;99.90;;;;;;4177467;28;20046;-73
2021/09/19 06:56:33;;;;;;;4.20;3.50;;;15.20;99.90;;;;;;4173176;28;20036;-74
2021/09/19 06:58:33;;;;;;;5.40;4.35;;;15.20;99.90;;;;;;4159631;28;20112;-74
2021/09/19 07:00:34;;;;;;;7.47;4.18;;;15.20;99.90;;;;;;4154768;28;20045;-74
2021/09/19 07:02:35;;;;;;;5.18;3.95;;;15.30;99.90;;;;;;4156645;28;20045;-73
2021/09/19 07:04:35;;;;;;;6.15;3.47;;;15.20;99.90;;;;;;4156056;28;20029;-74
2021/09/19 07:06:36;;;;;;;5.18;3.80;;;15.30;99.90;;;;;;4156337;28;20106;-74
2021/09/19 07:08:37;;;;;;;5.05;3.92;;;15.40;99.90;;;;;;4174450;28;20033;-74
2021/09/19 07:10:38;;;;;;;4.18;3.42;;;15.40;99.90;;;;;;4158116;28;20037;-74
2021/09/19 07:12:39;;;;;;;4.80;3.90;;;15.40;99.90;;;;;;4172194;28;20041;-74
2021/09/19 07:14:42;;;;;;;5.25;4.22;;;15.50;99.90;;;;;;4168853;28;20033;-74
2021/09/19 07:16:42;;;;;;;;;;;15.40;99.90;;;;;;4154861;28;20041;-73
2021/09/19 07:18:43;;;;;;;4.57;3.50;;;15.50;99.90;;;;;;4154565;28;19928;-74
2021/09/19 07:20:43;;;;;;;3.08;2.72;;;15.50;99.90;;;;;;4155510;28;20033;-74
2021/09/19 07:22:46;;;;;;;3.72;3.05;;;15.60;99.90;;;;;;4151670;28;20551;-74
2021/09/19 07:24:47;;;;;;;4.30;3.30;;;15.60;99.90;;;;;;4153342;28;20037;-74
2021/09/19 07:26:47;;;;;;;4.93;3.03;;;15.70;99.90;;;;;;4154902;28;20115;-74
2021/09/19 07:28:48;;;;;;;4.93;3.03;;;15.70;99.90;;;;;;4156384;28;20037;-74
2021/09/19 07:30:49;;;;;;;3.58;2.50;;;15.70;99.90;;;;;;4153429;28;20088;-74
2021/09/19 07:32:51;;;;;;;3.40;2.80;;;15.80;99.90;;;;;;4154142;28;20130;-74
2021/09/19 07:34:52;;;;;;;3.10;2.47;;;15.80;99.90;;;;;;4154858;28;20049;-74
2021/09/19 07:36:53;;;;;;;3.97;2.72;;;15.90;99.90;;;;;;4157078;28;20190;-74
2021/09/19 07:38:57;;;;;;;4.15;3.25;;;16.00;99.90;;;;;;4156943;28;20426;-74
2021/09/19 07:40:58;;;;;;;3.30;2.70;;;16.00;99.90;;;;;;4152966;28;20046;-74
2021/09/19 07:42:59;;;;;;;11.90;2.90;;;16.00;99.90;;;;;;4156722;28;20033;-74
2021/09/19 07:45:01;;;;;;;3.70;2.90;;;16.00;99.90;;;;;;4152817;28;20038;-74
2021/09/19 07:47:04;;;;;;;3.28;2.72;;;16.10;99.90;;;;;;4159447;28;20500;-76
2021/09/19 07:49:08;;;;;;;3.42;2.78;;;16.10;99.90;;;;;;4151875;28;20060;-74
2021/09/19 07:51:09;;;;;;;3.35;2.45;;;16.10;99.90;;;;;;4156493;28;20045;-74
2021/09/19 07:53:10;;;;;;;2.90;2.60;;;16.10;99.90;;;;;;4156715;28;20040;-74
2021/09/19 07:55:14;;;;;;;2.72;2.28;;;16.20;99.90;;;;;;4156908;28;20088;-74
2021/09/19 07:57:15;;;;;;;2.83;2.20;;;16.20;99.90;;;;;;4135747;28;20578;-74
2021/09/19 07:59:16;;;;;;;5.38;2.80;;;16.30;99.90;;;;;;4155294;28;20029;-74
2021/09/19 08:01:16;;;;;;;3.15;2.60;;;16.40;99.90;;;;;;4155753;28;20064;-74
2021/09/19 08:03:17;;;;;;;3.55;2.58;;;16.40;99.90;;;;;;4152044;28;20035;-74
2021/09/19 08:05:18;;;;;;;4.35;2.67;;;16.50;99.90;;;;;;4154139;28;20457;-75
2021/09/19 08:07:21;;;;;;;2.65;2.03;;;16.50;99.90;;;;;;4155346;28;20137;-74
2021/09/19 08:09:21;;;;;;;3.80;2.90;;;16.60;99.90;;;;;;4153451;28;20445;-74
2021/09/19 08:11:22;;;;;;;3.47;2.55;;;16.60;99.90;;;;;;4152493;28;20110;-74
2021/09/19 08:13:23;;;;;;;4.00;3.00;;;16.60;99.90;;;;;;4147228;28;20033;-74
2021/09/19 08:15:26;;;;;;;3.67;3.08;;;16.70;99.90;;;;;;4150968;28;20029;-74
2021/09/19 08:17:26;;;;;;;;;;;16.80;99.90;;;;;;4151089;28;20555;-74
2021/09/19 08:19:27;;;;;;;3.58;2.60;;;16.80;99.90;;;;;;4138504;28;19960;-74
2021/09/19 08:21:28;;;;;;;4.05;3.22;;;16.80;99.90;;;;;;4149361;28;20045;-74
2021/09/19 08:23:29;;;;;;;5.60;3.40;;;16.90;99.90;;;;;;4145964;28;20034;-74
2021/09/19 08:25:30;;;;;;;5.28;3.08;;;16.90;99.90;;;;;;4155879;28;20040;-74
2021/09/19 08:27:31;;;;;;;4.85;3.15;;;17.00;99.90;;;;;;4153152;28;20057;-73
2021/09/19 08:29:31;;;;;;;3.53;2.70;;;17.00;99.90;;;;;;4149573;28;20173;-74
2021/09/19 08:31:32;;;;;;;3.40;2.70;;;17.00;99.90;;;;;;4154109;28;20547;-74
2021/09/19 08:33:33;;;;;;;3.85;3.30;;;17.00;99.90;;;;;;4157363;28;20017;-74
2021/09/19 08:35:33;;;;;;;3.90;2.92;;;17.00;99.90;;;;;;4153755;28;20034;-74
2021/09/19 08:37:34;;;;;;;4.82;3.38;;;17.10;99.90;;;;;;4154959;28;20030;-74
2021/09/19 08:39:35;;;;;;;4.05;2.72;;;17.20;99.90;;;;;;4157454;28;20065;-74
2021/09/19 08:41:37;;;;;;;4.03;2.88;;;17.30;99.90;;;;;;4154196;28;20034;-74
2021/09/19 08:43:37;;;;;;;2.80;2.35;;;17.30;99.90;;;;;;4155463;28;20025;-74
2021/09/19 08:45:39;;;;;;;3.35;2.63;;;17.50;99.90;;;;;;4153845;28;20030;-74
2021/09/19 08:47:39;;;;;;;4.80;3.25;;;17.50;99.90;;;;;;4149104;28;20045;-74
2021/09/19 08:49:42;;;;;;;5.13;3.10;;;17.70;99.90;;;;;;4156051;28;20052;-74
2021/09/19 08:51:43;;;;;;;4.07;3.20;;;17.80;99.90;;;;;;4156606;28;20052;-74
2021/09/19 08:53:45;;;;;;;3.72;2.75;;;17.90;99.90;;;;;;4156645;28;20026;-74
2021/09/19 08:55:46;;;;;;;3.63;2.77;;;18.10;99.90;;;;;;4156732;28;20652;-74
2021/09/19 08:57:49;;;;;;;3.65;2.78;;;18.20;99.90;;;;;;4156539;28;20517;-74
2021/09/19 08:59:52;;;;;;;2.92;2.00;;;18.20;99.90;;;;;;4153093;28;20033;-74
2021/09/19 09:02:03;;;;;;;2.70;2.17;;;18.40;99.90;;;;;;4155886;28;20030;-74
2021/09/19 09:04:05;;;;;;;4.47;2.55;;;18.40;99.90;;;;;;4147296;28;20497;-74
2021/09/19 09:06:08;;;;;;;3.63;2.67;;;18.50;99.90;;;;;;4155756;28;20038;-74
2021/09/19 09:08:10;;;;;;;3.90;2.33;;;18.50;99.90;;;;;;4155997;28;20057;-73
2021/09/19 09:10:11;;;;;;;3.75;2.28;;;18.60;99.90;;;;;;4155223;28;20091;-73
2021/09/19 09:12:12;;;;;;;3.47;2.40;;;18.70;99.90;;;;;;4155131;28;20030;-74
2021/09/19 09:14:22;;;;;;;3.20;2.20;;;18.80;99.90;;;;;;4149632;28;20037;-74
2021/09/19 09:16:23;;;;;;;2.58;1.90;;;18.90;99.90;;;;;;4178568;28;20396;-74
2021/09/19 09:18:28;;;;;;;4.43;2.63;;;19.10;99.90;;;;;;4174530;28;20442;-73
2021/09/19 09:20:58;;;;;;;3.10;2.30;;;19.10;99.90;;;;;;4174029;28;20063;-73
2021/09/19 09:22:58;;;;;;;3.40;2.30;;;19.30;99.90;;;;;;4173393;28;20052;-73
2021/09/19 09:25:07;;;;;;;6.15;2.78;;;19.30;99.90;;;;;;4181846;28;20565;-73
2021/09/19 09:27:19;;;;;;;2.75;2.13;;;19.40;99.90;;;;;;4176514;28;20444;-73
2021/09/19 09:29:20;;;;;;;4.18;2.45;;;19.40;99.90;;;;;;4179733;28;20037;-73
2021/09/19 09:31:33;;;;;;;2.60;2.20;;;19.50;99.90;;;;;;4181228;28;20028;-73
2021/09/19 09:33:34;;;;;;;3.13;2.28;;;19.50;99.90;;;;;;4178124;28;20072;-73
2021/09/19 09:35:40;;;;;;;2.90;1.92;;;19.60;99.90;;;;;;4177011;28;20593;-73
2021/09/19 09:37:41;;;;;;;3.05;2.15;;;19.70;99.90;;;;;;4175152;28;20041;-73
2021/09/19 09:39:42;;;;;;;2.60;2.15;;;19.70;99.90;;;;;;4175676;28;20083;-74
2021/09/19 09:41:43;;;;;;;2.70;2.08;;;19.70;99.90;;;;;;4173434;28;20503;-73
2021/09/19 09:43:44;;;;;;;5.47;2.88;;;19.80;99.90;;;;;;4175878;28;20048;-74
2021/09/19 09:45:46;;;;;;;5.47;3.22;;;19.80;99.90;;;;;;4175116;28;20040;-74
2021/09/19 09:47:47;;;;;;;;;;;19.80;99.90;;;;;;4175500;28;20091;-73
2021/09/19 09:49:58;;;;;;;4.07;2.45;;;19.90;99.90;;;;;;4174765;28;19909;-73
2021/09/19 09:52:10;;;;;;;4.05;2.42;;;20.00;99.90;;;;;;4175230;28;20032;-74
2021/09/19 09:54:15;;;;;;;2.75;2.28;;;20.10;99.90;;;;;;4174966;28;20078;-73
2021/09/19 09:56:16;;;;;;;2.55;2.05;;;20.10;99.90;;;;;;4174430;28;20044;-73
2021/09/19 09:58:19;;;;;;;3.50;2.55;;;20.20;99.90;;;;;;4180208;28;20031;-72
2021/09/19 10:00:21;;;;;;;3.13;2.55;;;20.30;99.90;;;;;;4178921;28;20380;-73
2021/09/19 10:02:22;;;;;;;3.67;2.80;;;20.40;99.90;;;;;;4185991;28;20067;-73
2021/09/19 10:04:22;;;;;;;3.35;2.42;;;20.40;99.90;;;;;;4157207;28;20034;-73
2021/09/19 10:06:24;;;;;;;2.45;2.10;;;20.50;99.90;;;;;;4149945;28;20034;-73
2021/09/19 10:08:25;;;;;;;3.58;2.63;;;20.50;99.90;;;;;;4174901;28;20115;-74
2021/09/19 10:10:28;;;;;;;3.78;2.80;;;20.60;99.90;;;;;;4173010;28;20037;-74
2021/09/19 10:12:29;;;;;;;3.40;2.38;;;20.60;99.90;;;;;;4175052;28;20044;-74
2021/09/19 10:14:30;;;;;;;3.63;2.47;;;20.60;99.90;;;;;;4172018;28;20038;-74
2021/09/19 10:16:31;;;;;;;3.25;2.38;;;20.60;99.90;;;;;;4172967;28;20060;-74
2021/09/19 10:18:32;;;;;;;6.60;2.50;;;20.60;99.90;;;;;;4174753;28;20036;-74
2021/09/19 10:20:40;;;;;;;2.90;2.20;;;20.60;99.90;;;;;;4172087;28;20615;-74
2021/09/19 10:23:09;;;;;;;4.03;2.45;;;20.60;99.90;;;;;;4169778;28;20032;-74
2021/09/19 10:25:21;;;;;;;3.17;2.25;;;20.60;99.90;;;;;;4155737;28;20856;-74
2021/09/19 10:27:28;;;;;;;2.75;2.30;;;20.60;99.90;;;;;;4157211;28;20072;-73
2021/09/19 10:29:32;;;;;;;4.25;2.95;;;20.70;99.90;;;;;;4154711;28;20123;-72
2021/09/19 10:31:41;;;;;;;4.18;3.08;;;20.70;99.90;;;;;;4157131;28;20108;-73
2021/09/19 10:33:51;;;;;;;3.60;2.50;;;20.70;99.90;;;;;;4173696;28;20120;-72